Lady Lake, FL (32159)

3:26 PM EST on December 21, 2014 (GMT -0500)
La Zamora | Change Station
CLOSE
Current Station
Personal Weather Station
Location: The Villages, FL
Elevation: 86 ft
Nearby Weather Stations

Elev 86 ft 28.92 °N, 81.95 °W | Updated 1 minute ago

Overcast
Overcast
68.4 °F
Feels Like 68.4 °F
N
0.0
Wind Variable Wind from ENE
Gusts 0.0 mph

Today
High -- | Low -- °F
--% Chance of Precip.
Yesterday
High -- | Low -- °F
Precip. -- in
7:16 AM 5:34 PM
Waning Crescent, 0% visible
Pressure 29.93 in
Visibility 4.0 miles
Clouds
Dew Point 65 °F
Humidity 90%
Rainfall 0.00 in
Snow Depth Not available.
UV Not available.
Pollen 6.80 out of 12
Air Quality Not available.
Flu Activity Not available.
METAR KVVG 212015Z AUTO 00000KT 4SM BR 20/18 A2993 RMK A01

More Conditions Fewer Conditions

Pressure 29.93 in
Visibility 4.0 miles
Clouds
Dew Point 65 °F
Humidity 90%
Rainfall 0.00 in
Snow Depth Not available.
UV Not available.
Pollen 6.80 out of 12
Air Quality Not available.
Flu Activity Not available.
METAR KVVG 212015Z AUTO 00000KT 4SM BR 20/18 A2993 RMK A01

More Conditions Fewer Conditions

Nowcast | as of 2:59 PM EST on December 21, 2014

Area of rain spreading eastward from convection currently over the eastern Gulf of Mexico will move into Lake County eastward through the I-4 corridor and towards Volusia and northern Brevard counties through late afternoon. Light to moderate rainfall will occur with this activity and isolated embedded thunderstorms will also be possible across this region. Cloud cover will continue to increase over east central Florida with cloudy to mostly cloudy skies expected into the rest of the day. Additional details...including graphics are available online at: http://www.Srh.NOAA.Gov/mlb/blog.Php

×

10-Day Weather Forecast

Almanac

Astronomy

Dec. 21, 2014 Rise Set
Actual Time
Civil Twilight
Nautical Twilight
Astronomical Twilight
Moon
Length of Visible Light
Length of Day
Tomorrow will be .
, % of the Moon is Illuminated

Today's Extremes

State Highs State Lows

Community

WunderPhotos

Upload Photos

1,779,469 photos uploaded!

WunderBlogs® & News

Nearby

Air Quality

  Air Quality AQ Index Pollutant
Not available.

Snow Depth

Station Depth Elevation

Earthquake Activity

City Distance Mag. Time & Date
Minimum magnitude displayed is 2.5.

Coastal Water Temperatures

Place Temperature

Nearby Weather Stations